createdAt,value
2018-07-12T00:00:11.089Z,72.20
2018-07-12T00:01:05.723Z,72.20
2018-07-12T00:02:06.734Z,72.20
2018-07-12T00:03:05.721Z,72.30
2018-07-12T00:04:05.696Z,72.50
2018-07-12T00:05:06.274Z,72.50
2018-07-12T00:06:05.529Z,72.60
2018-07-12T00:07:10.499Z,72.60
2018-07-12T00:08:08.884Z,72.50
2018-07-12T00:09:06.706Z,72.50
2018-07-12T00:10:06.274Z,72.80
2018-07-12T00:11:06.552Z,73.00
2018-07-12T00:12:06.323Z,72.80
2018-07-12T00:13:05.604Z,72.90
2018-07-12T00:14:09.436Z,73.20
2018-07-12T00:15:05.858Z,73.20
2018-07-12T00:16:09.483Z,73.20
2018-07-12T00:17:10.906Z,73.20
2018-07-12T00:18:05.840Z,73.20
2018-07-12T00:19:06.388Z,73.30
2018-07-12T00:20:05.787Z,73.40
2018-07-12T00:21:06.353Z,73.50
2018-07-12T00:22:11.126Z,73.80
2018-07-12T00:23:06.395Z,74.00
2018-07-12T00:24:10.512Z,74.00
2018-07-12T00:25:06.002Z,74.00
2018-07-12T00:26:08.674Z,74.00
2018-07-12T00:27:08.666Z,73.80
2018-07-12T00:28:06.096Z,73.80
2018-07-12T00:29:10.616Z,73.90
2018-07-12T00:30:08.908Z,73.90
2018-07-12T00:31:11.409Z,73.90
2018-07-12T00:32:10.574Z,74.00
2018-07-12T00:33:05.702Z,74.10
2018-07-12T00:34:05.944Z,74.20
2018-07-12T00:35:05.921Z,74.30
2018-07-12T00:36:08.064Z,74.40
2018-07-12T00:37:05.453Z,74.40
2018-07-12T00:38:06.586Z,74.20
2018-07-12T00:39:06.232Z,74.20
2018-07-12T00:40:05.762Z,74.20
2018-07-12T00:41:05.384Z,74.30
2018-07-12T00:42:09.071Z,74.20
2018-07-12T00:43:05.478Z,74.30
2018-07-12T00:44:08.818Z,74.20
2018-07-12T00:45:09.589Z,74.40
2018-07-12T00:46:06.477Z,74.20
2018-07-12T00:47:06.107Z,74.40
2018-07-12T00:48:06.410Z,74.40
2018-07-12T00:49:05.945Z,74.70
2018-07-12T00:50:05.684Z,75.00
2018-07-12T00:51:06.112Z,75.10
2018-07-12T00:52:05.844Z,75.10
2018-07-12T00:53:09.399Z,75.40
2018-07-12T00:54:06.326Z,75.40
2018-07-12T00:55:09.102Z,75.30
2018-07-12T00:56:05.518Z,75.30
2018-07-12T00:57:07.980Z,75.20
2018-07-12T00:58:06.529Z,75.20
2018-07-12T00:59:10.221Z,75.00
2018-07-12T01:00:10.754Z,75.00
2018-07-12T01:01:06.208Z,74.90
2018-07-12T01:02:06.353Z,74.90
2018-07-12T01:03:10.597Z,74.90
2018-07-12T01:04:08.717Z,75.00
2018-07-12T01:05:10.808Z,75.00
2018-07-12T01:06:06.349Z,75.20
2018-07-12T01:07:11.346Z,75.10
2018-07-12T01:08:06.386Z,75.10
2018-07-12T01:09:10.957Z,75.10
2018-07-12T01:10:10.690Z,75.10
2018-07-12T01:11:10.782Z,75.10
2018-07-12T01:12:09.015Z,74.90
2018-07-12T01:13:05.797Z,75.00
2018-07-12T01:14:06.579Z,74.90
2018-07-12T01:15:06.387Z,74.90
2018-07-12T01:16:08.335Z,75.10
2018-07-12T01:17:05.824Z,75.10
2018-07-12T01:18:06.375Z,75.10
2018-07-12T01:19:09.068Z,75.10
2018-07-12T01:20:10.776Z,75.20
2018-07-12T01:21:06.425Z,75.20
2018-07-12T01:22:06.106Z,75.20
2018-07-12T01:23:09.418Z,75.00
2018-07-12T01:24:06.920Z,75.10
2018-07-12T01:25:08.742Z,75.20
2018-07-12T01:26:10.341Z,75.20
2018-07-12T01:27:06.076Z,75.20
2018-07-12T01:28:05.890Z,75.20
2018-07-12T01:29:06.580Z,75.40
2018-07-12T01:30:09.639Z,75.40
2018-07-12T01:31:06.202Z,75.40
2018-07-12T01:32:11.087Z,75.60
2018-07-12T01:33:10.549Z,75.40
2018-07-12T01:34:05.877Z,75.40
2018-07-12T01:35:11.386Z,75.50
2018-07-12T01:36:09.370Z,75.50
2018-07-12T01:37:05.950Z,75.50
2018-07-12T01:38:09.297Z,75.50
2018-07-12T01:39:10.830Z,75.50
2018-07-12T01:40:06.210Z,75.60
2018-07-12T01:41:08.796Z,76.30
2018-07-12T01:42:09.137Z,76.20
2018-07-12T01:43:08.221Z,76.10
2018-07-12T01:44:05.697Z,76.10
2018-07-12T01:45:08.521Z,76.30
2018-07-12T01:46:08.489Z,76.30
2018-07-12T01:47:08.465Z,76.20
2018-07-12T01:48:06.315Z,76.20
2018-07-12T01:49:08.799Z,76.20
2018-07-12T01:50:06.258Z,76.20
2018-07-12T01:51:06.150Z,76.20
2018-07-12T01:52:06.838Z,76.10
2018-07-12T01:53:14.589Z,76.10
2018-07-12T01:54:10.464Z,76.10
2018-07-12T01:55:05.805Z,76.00
2018-07-12T01:56:08.612Z,75.90
2018-07-12T01:57:05.997Z,75.90
2018-07-12T01:58:10.446Z,75.80
2018-07-12T01:59:05.392Z,75.80
2018-07-12T02:00:11.068Z,75.80
2018-07-12T02:01:11.204Z,75.70
2018-07-12T02:02:05.692Z,75.60
2018-07-12T02:03:06.624Z,75.60
2018-07-12T02:04:09.417Z,75.50
2018-07-12T02:05:05.870Z,75.60
2018-07-12T02:06:06.127Z,75.50
2018-07-12T02:07:05.759Z,75.40
2018-07-12T02:08:06.411Z,75.40
2018-07-12T02:09:08.578Z,75.50
2018-07-12T02:10:11.166Z,75.50
2018-07-12T02:11:05.362Z,75.40
2018-07-12T02:12:11.133Z,75.60
2018-07-12T02:13:06.342Z,75.60
2018-07-12T02:14:05.726Z,75.50
2018-07-12T02:15:08.948Z,75.40
2018-07-12T02:16:10.434Z,75.40
2018-07-12T02:17:05.703Z,75.30
2018-07-12T02:18:10.493Z,75.40
2018-07-12T02:19:06.675Z,75.40
2018-07-12T02:20:08.247Z,75.60
2018-07-12T02:21:08.987Z,75.50
2018-07-12T02:22:07.951Z,75.40
2018-07-12T02:23:06.479Z,75.40
2018-07-12T02:24:06.018Z,75.40
2018-07-12T02:25:09.412Z,75.40
2018-07-12T02:26:10.928Z,75.40
2018-07-12T02:27:06.395Z,75.40
2018-07-12T02:28:09.206Z,75.40
2018-07-12T02:29:06.177Z,75.40
2018-07-12T02:30:09.003Z,75.30
2018-07-12T02:31:10.435Z,75.30
2018-07-12T02:32:09.184Z,75.20
2018-07-12T02:33:10.685Z,75.20
2018-07-12T02:34:09.571Z,75.20
2018-07-12T02:35:08.844Z,75.10
2018-07-12T02:36:06.493Z,75.10
2018-07-12T02:37:06.054Z,75.10
2018-07-12T02:38:08.608Z,75.10
2018-07-12T02:39:06.113Z,75.10
2018-07-12T02:40:10.766Z,75.00
2018-07-12T02:41:06.309Z,75.00
2018-07-12T02:42:05.913Z,74.90
2018-07-12T02:43:07.314Z,74.90
2018-07-12T02:44:06.194Z,74.90
2018-07-12T02:45:11.056Z,74.90
2018-07-12T02:46:06.292Z,74.90
2018-07-12T02:47:11.037Z,75.10
2018-07-12T02:48:11.337Z,75.00
2018-07-12T02:49:05.426Z,75.00
2018-07-12T02:50:06.380Z,75.00
2018-07-12T02:51:08.384Z,75.00
2018-07-12T02:52:05.809Z,74.90
2018-07-12T02:53:06.657Z,74.90
2018-07-12T02:54:11.510Z,75.00
2018-07-12T02:55:06.260Z,75.00
2018-07-12T02:56:05.411Z,75.00
2018-07-12T02:57:08.662Z,75.10
2018-07-12T02:58:06.299Z,75.10
2018-07-12T02:59:10.742Z,75.10
2018-07-12T03:00:06.421Z,75.20
2018-07-12T03:01:05.979Z,75.30
2018-07-12T03:02:05.591Z,75.30
2018-07-12T03:03:06.120Z,75.50
2018-07-12T03:04:06.291Z,75.50
2018-07-12T03:05:11.103Z,75.50
2018-07-12T03:06:05.669Z,75.50
2018-07-12T03:07:06.376Z,75.60
2018-07-12T03:08:05.630Z,75.70
2018-07-12T03:09:06.007Z,75.70
2018-07-12T03:10:08.829Z,75.90
2018-07-12T03:11:08.822Z,76.00
2018-07-12T03:12:09.579Z,76.00
2018-07-12T03:13:11.114Z,76.00
2018-07-12T03:14:05.696Z,76.10
2018-07-12T03:15:06.771Z,76.20
2018-07-12T03:16:05.591Z,76.40
2018-07-12T03:17:06.497Z,77.00
2018-07-12T03:18:05.822Z,76.80
2018-07-12T03:19:05.505Z,76.70
2018-07-12T03:20:06.197Z,76.60
2018-07-12T03:21:10.889Z,76.70
2018-07-12T03:22:06.302Z,76.70
2018-07-12T03:23:11.114Z,76.80
2018-07-12T03:24:09.859Z,76.60
2018-07-12T03:25:09.695Z,76.70
2018-07-12T03:26:09.323Z,76.70
2018-07-12T03:27:06.223Z,76.70
2018-07-12T03:28:05.660Z,76.60
2018-07-12T03:29:06.814Z,76.60
2018-07-12T03:30:06.435Z,76.60
2018-07-12T03:31:09.029Z,76.60
2018-07-12T03:32:08.012Z,76.60
2018-07-12T03:33:06.572Z,76.60
2018-07-12T03:34:06.371Z,76.80
2018-07-12T03:35:10.388Z,77.20
2018-07-12T03:36:07.942Z,77.10
2018-07-12T03:37:07.299Z,77.10
2018-07-12T03:38:09.264Z,77.30
2018-07-12T03:39:10.668Z,77.30
2018-07-12T03:40:06.206Z,77.30
2018-07-12T03:41:10.733Z,77.20
2018-07-12T03:42:06.028Z,77.30
2018-07-12T03:43:05.971Z,77.30
2018-07-12T03:44:05.542Z,77.40
2018-07-12T03:45:09.068Z,77.30
2018-07-12T03:46:05.489Z,77.30
2018-07-12T03:47:05.852Z,77.30
2018-07-12T03:48:06.000Z,77.40
2018-07-12T03:49:05.999Z,77.40
2018-07-12T03:50:05.561Z,77.50
2018-07-12T03:51:11.232Z,77.80
2018-07-12T03:52:06.368Z,77.70
2018-07-12T03:53:06.746Z,77.70
2018-07-12T03:54:06.236Z,77.70
2018-07-12T03:55:05.968Z,77.70
2018-07-12T03:56:06.355Z,77.70
2018-07-12T03:57:11.049Z,77.60
2018-07-12T03:58:06.256Z,77.60
2018-07-12T03:59:06.379Z,77.70
2018-07-12T04:00:06.272Z,77.70
2018-07-12T04:01:05.999Z,77.70
2018-07-12T04:02:06.222Z,77.70
2018-07-12T04:03:08.697Z,77.70
2018-07-12T04:04:06.127Z,77.70
2018-07-12T04:05:08.308Z,77.60
2018-07-12T04:06:06.629Z,77.60
2018-07-12T04:07:08.882Z,77.50
2018-07-12T04:08:10.523Z,77.50
2018-07-12T04:09:06.177Z,77.50
2018-07-12T04:10:10.713Z,77.60
2018-07-12T04:11:05.689Z,77.60
2018-07-12T04:12:11.444Z,77.50
2018-07-12T04:13:05.566Z,77.50
2018-07-12T04:14:06.597Z,77.40
2018-07-12T04:15:09.509Z,77.30
2018-07-12T04:16:10.918Z,77.40
2018-07-12T04:17:05.820Z,77.30
2018-07-12T04:18:05.932Z,77.20
2018-07-12T04:19:08.960Z,77.30
2018-07-12T04:20:06.425Z,77.30
2018-07-12T04:21:09.354Z,77.30
2018-07-12T04:22:09.079Z,77.30
2018-07-12T04:23:05.873Z,77.30
2018-07-12T04:24:11.812Z,77.40
2018-07-12T04:25:06.881Z,77.40
2018-07-12T04:26:08.244Z,77.40
2018-07-12T04:27:09.360Z,77.40
2018-07-12T04:28:11.210Z,77.50
2018-07-12T04:29:05.356Z,77.40
2018-07-12T04:30:06.677Z,77.50
2018-07-12T04:31:08.664Z,77.50
2018-07-12T04:32:06.415Z,77.50
2018-07-12T04:33:10.751Z,77.60
2018-07-12T04:34:11.099Z,77.80
2018-07-12T04:35:05.838Z,77.90
2018-07-12T04:36:11.065Z,78.00
2018-07-12T04:37:05.487Z,78.30
2018-07-12T04:38:06.508Z,78.30
2018-07-12T04:39:06.484Z,78.30
2018-07-12T04:40:06.276Z,78.40
2018-07-12T04:41:05.967Z,78.40
2018-07-12T04:42:05.872Z,78.50
2018-07-12T04:43:09.486Z,78.70
2018-07-12T04:44:05.953Z,78.80
2018-07-12T04:45:06.279Z,78.80
2018-07-12T04:46:05.724Z,78.90
2018-07-12T04:47:08.613Z,79.10
2018-07-12T04:48:08.958Z,79.30
2018-07-12T04:49:06.226Z,79.30
2018-07-12T04:50:08.533Z,79.40
2018-07-12T04:51:09.315Z,79.40
2018-07-12T04:52:10.793Z,79.30
2018-07-12T04:53:06.244Z,79.30
2018-07-12T04:54:06.390Z,79.30
2018-07-12T04:55:11.342Z,79.20
2018-07-12T04:56:11.446Z,79.50
2018-07-12T04:57:06.269Z,79.40
2018-07-12T04:58:10.594Z,79.40
2018-07-12T04:59:06.473Z,79.40
2018-07-12T05:00:09.297Z,79.30
2018-07-12T05:01:06.177Z,79.20
2018-07-12T05:02:06.137Z,79.30
2018-07-12T05:03:06.153Z,79.30
2018-07-12T05:04:08.459Z,79.30
2018-07-12T05:05:06.847Z,79.30
2018-07-12T05:06:08.861Z,79.40
2018-07-12T05:07:06.607Z,79.40
2018-07-12T05:08:10.617Z,79.20
2018-07-12T05:09:05.978Z,79.30
2018-07-12T05:10:10.767Z,79.30
2018-07-12T05:11:10.915Z,79.30
2018-07-12T05:12:06.027Z,79.50
2018-07-12T05:13:05.420Z,79.40
2018-07-12T05:14:06.001Z,79.50
2018-07-12T05:15:06.318Z,79.60
2018-07-12T05:16:06.007Z,79.50
2018-07-12T05:17:10.501Z,79.50
2018-07-12T05:18:05.502Z,79.70
2018-07-12T05:19:05.944Z,79.70
2018-07-12T05:20:06.499Z,79.70
2018-07-12T05:21:06.118Z,79.80
2018-07-12T05:22:08.933Z,80.10
2018-07-12T05:23:06.749Z,80.10
2018-07-12T05:24:06.108Z,80.10
2018-07-12T05:25:10.395Z,80.30
2018-07-12T05:26:09.027Z,80.50
2018-07-12T05:27:05.743Z,80.50
2018-07-12T05:28:06.070Z,80.40
2018-07-12T05:29:11.369Z,81.00
2018-07-12T05:30:06.147Z,81.00
2018-07-12T05:31:05.584Z,80.90
2018-07-12T05:32:06.216Z,81.00
2018-07-12T05:33:06.994Z,81.00
2018-07-12T05:34:09.342Z,81.10
2018-07-12T05:35:10.867Z,81.10
2018-07-12T05:36:06.734Z,81.10
2018-07-12T05:37:06.212Z,81.20
2018-07-12T05:38:05.795Z,81.30
2018-07-12T05:39:06.483Z,81.20
2018-07-12T05:40:06.387Z,81.20
2018-07-12T05:41:08.804Z,81.40
2018-07-12T05:42:06.510Z,81.40
2018-07-12T05:43:05.511Z,81.40
2018-07-12T05:44:10.927Z,81.30
2018-07-12T05:45:10.539Z,81.50
2018-07-12T05:46:08.676Z,81.50
2018-07-12T05:47:06.016Z,81.50
2018-07-12T05:48:06.662Z,81.50
2018-07-12T05:49:05.362Z,81.50
2018-07-12T05:50:05.775Z,81.50
2018-07-12T05:51:06.097Z,81.50
2018-07-12T05:52:06.248Z,81.40
2018-07-12T05:53:06.703Z,81.40
2018-07-12T05:54:05.682Z,81.50
2018-07-12T05:55:05.586Z,81.40
2018-07-12T05:56:06.008Z,81.40
2018-07-12T05:57:10.876Z,81.50
2018-07-12T05:58:06.349Z,81.30
2018-07-12T05:59:08.758Z,81.40
2018-07-12T06:00:05.860Z,81.40
2018-07-12T06:01:06.112Z,81.40
2018-07-12T06:02:05.782Z,81.50
2018-07-12T06:03:05.911Z,81.50
2018-07-12T06:04:11.171Z,81.50
2018-07-12T06:05:06.607Z,81.50
2018-07-12T06:06:07.087Z,81.50
2018-07-12T06:07:11.008Z,81.50
2018-07-12T06:08:11.048Z,81.40
2018-07-12T06:09:11.053Z,81.60
2018-07-12T06:10:11.262Z,81.60
2018-07-12T06:11:10.711Z,81.70
2018-07-12T06:12:09.098Z,81.60
2018-07-12T06:13:05.951Z,81.60
2018-07-12T06:14:09.073Z,81.50
2018-07-12T06:15:08.298Z,81.30
2018-07-12T06:16:06.029Z,81.40
2018-07-12T06:17:09.590Z,81.30
2018-07-12T06:18:09.230Z,81.30
2018-07-12T06:19:06.788Z,81.30
2018-07-12T06:20:06.233Z,81.20
2018-07-12T06:21:05.671Z,81.00
2018-07-12T06:22:06.367Z,80.80
2018-07-12T06:23:06.054Z,80.90
2018-07-12T06:24:06.052Z,80.90
2018-07-12T06:25:05.724Z,80.70
2018-07-12T06:26:06.361Z,80.60
2018-07-12T06:27:06.365Z,80.50
2018-07-12T06:28:05.426Z,80.50
2018-07-12T06:29:06.467Z,80.50
2018-07-12T06:30:08.852Z,80.40
2018-07-12T06:31:09.483Z,80.40
2018-07-12T06:32:06.045Z,80.40
2018-07-12T06:33:05.924Z,80.40
2018-07-12T06:34:08.855Z,80.40
2018-07-12T06:35:06.229Z,80.40
2018-07-12T06:36:09.020Z,80.30
2018-07-12T06:37:05.514Z,80.30
2018-07-12T06:38:05.605Z,80.20
2018-07-12T06:39:09.632Z,79.70
2018-07-12T06:40:06.533Z,79.70
2018-07-12T06:41:05.958Z,79.60
2018-07-12T06:42:05.570Z,79.50
2018-07-12T06:43:10.874Z,79.40
2018-07-12T06:44:06.470Z,79.20
2018-07-12T06:45:06.215Z,79.00
2018-07-12T06:46:05.540Z,78.90
2018-07-12T06:47:08.874Z,78.60
2018-07-12T06:48:06.142Z,78.70
2018-07-12T06:49:06.740Z,78.60
2018-07-12T06:50:06.030Z,78.70
2018-07-12T06:51:06.087Z,78.70
2018-07-12T06:52:05.581Z,78.60
2018-07-12T06:53:10.902Z,78.70
2018-07-12T06:54:11.067Z,78.50
2018-07-12T06:55:11.149Z,78.40
2018-07-12T06:56:06.458Z,78.40
2018-07-12T06:57:08.856Z,78.10
2018-07-12T06:58:06.234Z,78.20
2018-07-12T06:59:06.041Z,78.20
2018-07-12T07:00:05.985Z,78.10
2018-07-12T07:01:10.831Z,78.00
2018-07-12T07:02:08.312Z,78.10
2018-07-12T07:03:08.790Z,78.00
2018-07-12T07:04:06.662Z,78.00
2018-07-12T07:05:06.139Z,78.00
2018-07-12T07:06:10.758Z,78.10
2018-07-12T07:07:09.450Z,77.80
2018-07-12T07:08:05.859Z,77.80
2018-07-12T07:09:06.464Z,77.80
2018-07-12T07:10:06.131Z,77.80
2018-07-12T07:11:11.439Z,77.50
2018-07-12T07:12:05.500Z,77.40
2018-07-12T07:13:12.123Z,77.20
2018-07-12T07:14:08.749Z,77.20
2018-07-12T07:15:06.486Z,77.20
2018-07-12T07:16:06.043Z,77.20
2018-07-12T07:17:05.627Z,77.20
2018-07-12T07:18:06.545Z,77.10
2018-07-12T07:19:06.104Z,77.10
2018-07-12T07:20:05.700Z,77.10
2018-07-12T07:21:06.260Z,77.10
2018-07-12T07:22:05.856Z,77.00
2018-07-12T07:23:06.344Z,77.00
2018-07-12T07:24:08.538Z,76.90
2018-07-12T07:25:10.901Z,76.80
2018-07-12T07:26:08.636Z,76.70
2018-07-12T07:27:06.181Z,76.70
2018-07-12T07:28:05.886Z,76.60
2018-07-12T07:29:06.183Z,76.40
2018-07-12T07:30:05.629Z,76.20
2018-07-12T07:31:06.276Z,76.10
2018-07-12T07:32:10.866Z,75.90
2018-07-12T07:33:09.066Z,74.60
2018-07-12T07:34:10.383Z,74.50
2018-07-12T07:35:06.890Z,74.40
2018-07-12T07:36:09.441Z,74.10
2018-07-12T07:37:05.868Z,74.10
2018-07-12T07:38:05.704Z,73.60
2018-07-12T07:39:08.861Z,73.60
2018-07-12T07:40:11.359Z,73.70
2018-07-12T07:41:06.425Z,73.40
2018-07-12T07:42:08.343Z,72.70
2018-07-12T07:43:08.182Z,72.60
2018-07-12T07:44:05.660Z,72.60
2018-07-12T07:45:06.672Z,72.60
2018-07-12T07:46:09.356Z,72.50
2018-07-12T07:47:10.802Z,72.10
2018-07-12T07:48:05.576Z,72.10
2018-07-12T07:49:06.372Z,72.40
2018-07-12T07:50:11.018Z,72.50
2018-07-12T07:51:06.333Z,72.40
2018-07-12T07:52:06.523Z,72.40
2018-07-12T07:53:09.313Z,72.00
2018-07-12T07:54:09.059Z,72.10
2018-07-12T07:55:09.187Z,71.80
2018-07-12T07:56:11.905Z,71.80
2018-07-12T07:57:06.057Z,71.00
2018-07-12T07:58:05.579Z,71.00
2018-07-12T07:59:11.167Z,71.00
2018-07-12T08:00:08.098Z,70.70
2018-07-12T08:01:05.517Z,70.80
2018-07-12T08:02:06.589Z,70.50
2018-07-12T08:03:06.434Z,70.50
2018-07-12T08:04:06.139Z,70.70
2018-07-12T08:05:09.455Z,70.80
2018-07-12T08:06:14.041Z,70.50
2018-07-12T08:07:05.552Z,70.50
2018-07-12T08:08:06.449Z,70.60
2018-07-12T08:09:05.659Z,70.30
2018-07-12T08:10:06.408Z,70.40
2018-07-12T08:11:08.571Z,70.40
2018-07-12T08:12:06.339Z,70.20
2018-07-12T08:13:06.402Z,70.00
2018-07-12T08:14:05.948Z,70.30
2018-07-12T08:15:13.082Z,70.50
2018-07-12T08:16:06.006Z,70.50
2018-07-12T08:17:10.518Z,70.40
2018-07-12T08:18:09.167Z,70.20
2018-07-12T08:19:06.190Z,70.20
2018-07-12T08:20:11.413Z,70.20
2018-07-12T08:21:05.557Z,70.30
2018-07-12T08:22:05.882Z,70.30
2018-07-12T08:23:05.511Z,70.10
2018-07-12T08:24:14.481Z,70.20
2018-07-12T08:25:06.132Z,70.20
2018-07-12T08:26:05.913Z,70.20
2018-07-12T08:27:06.174Z,70.20
2018-07-12T08:28:10.929Z,70.30
2018-07-12T08:29:10.130Z,69.90
2018-07-12T08:30:10.959Z,70.00
2018-07-12T08:31:05.850Z,70.00
2018-07-12T08:32:09.764Z,70.20
2018-07-12T08:33:06.486Z,70.20
2018-07-12T08:34:06.026Z,70.10
2018-07-12T08:35:05.858Z,69.90
2018-07-12T08:36:10.909Z,69.60
2018-07-12T08:37:11.226Z,69.60
2018-07-12T08:38:09.048Z,69.60
2018-07-12T08:39:10.350Z,69.60
2018-07-12T08:40:05.695Z,69.60
2018-07-12T08:41:05.638Z,69.40
2018-07-12T08:42:06.679Z,69.60
2018-07-12T08:43:11.317Z,69.60
2018-07-12T08:44:06.223Z,69.60
2018-07-12T08:45:06.298Z,69.40
2018-07-12T08:46:08.386Z,69.10
2018-07-12T08:47:05.800Z,69.10
2018-07-12T08:48:09.534Z,69.10
2018-07-12T08:49:08.827Z,68.70
2018-07-12T08:50:11.325Z,68.70
2018-07-12T08:51:05.995Z,68.80
2018-07-12T08:52:10.529Z,68.60
2018-07-12T08:53:11.028Z,68.30
2018-07-12T08:54:08.874Z,68.30
2018-07-12T08:55:11.167Z,68.30
2018-07-12T08:56:06.208Z,67.90
2018-07-12T08:57:08.578Z,67.40
2018-07-12T08:58:06.561Z,67.40
2018-07-12T08:59:08.529Z,67.40
2018-07-12T09:00:06.228Z,67.40
2018-07-12T09:01:08.601Z,67.10
2018-07-12T09:02:06.285Z,67.00
2018-07-12T09:03:07.091Z,67.30
2018-07-12T09:04:06.030Z,67.30
2018-07-12T09:05:06.471Z,67.10
2018-07-12T09:06:08.666Z,67.20
2018-07-12T09:07:09.495Z,67.40
2018-07-12T09:08:05.857Z,67.40
2018-07-12T09:09:06.005Z,67.60
2018-07-12T09:10:06.080Z,67.80
2018-07-12T09:11:10.417Z,67.70
2018-07-12T09:12:08.389Z,67.80
2018-07-12T09:13:11.118Z,67.70
2018-07-12T09:14:05.626Z,67.80
2018-07-12T09:15:09.709Z,68.10
2018-07-12T09:16:06.202Z,68.20
2018-07-12T09:17:08.896Z,68.50
2018-07-12T09:18:06.500Z,68.60
2018-07-12T09:19:05.867Z,68.60
2018-07-12T09:20:05.450Z,68.50
2018-07-12T09:21:10.684Z,68.70
2018-07-12T09:22:11.416Z,68.80
2018-07-12T09:23:05.449Z,68.80
2018-07-12T09:24:05.662Z,68.80
2018-07-12T09:25:06.509Z,68.90
2018-07-12T09:26:11.223Z,68.90
2018-07-12T09:27:08.733Z,68.90
2018-07-12T09:28:08.586Z,68.80
2018-07-12T09:29:11.066Z,68.80
2018-07-12T09:30:08.828Z,68.70
2018-07-12T09:31:08.830Z,68.90
2018-07-12T09:32:11.376Z,68.80
2018-07-12T09:33:06.471Z,68.80
2018-07-12T09:34:06.305Z,69.00
2018-07-12T09:35:09.323Z,68.40
2018-07-12T09:36:06.025Z,68.50
2018-07-12T09:37:09.145Z,68.30
2018-07-12T09:38:08.928Z,68.40
2018-07-12T09:39:06.599Z,68.30
2018-07-12T09:40:11.092Z,68.50
2018-07-12T09:41:05.512Z,68.60
2018-07-12T09:42:09.010Z,68.50
2018-07-12T09:43:05.490Z,68.50
2018-07-12T09:44:06.485Z,68.60
2018-07-12T09:45:05.471Z,68.60
2018-07-12T09:46:05.956Z,68.30
2018-07-12T09:47:06.688Z,68.40
2018-07-12T09:48:10.548Z,68.50
2018-07-12T09:49:11.720Z,68.90
2018-07-12T09:50:08.989Z,68.80
2018-07-12T09:51:05.346Z,68.90
2018-07-12T09:52:11.403Z,68.80
2018-07-12T09:53:05.744Z,68.60
2018-07-12T09:54:06.525Z,68.60
2018-07-12T09:55:06.004Z,68.40
2018-07-12T09:56:05.800Z,68.50
2018-07-12T09:57:06.247Z,68.10
2018-07-12T09:58:10.980Z,68.20
2018-07-12T09:59:11.125Z,68.30
2018-07-12T10:00:11.238Z,68.40
2018-07-12T10:01:11.539Z,68.20
2018-07-12T10:02:09.308Z,68.10
2018-07-12T10:03:05.682Z,68.10
2018-07-12T10:04:09.028Z,67.80
2018-07-12T10:05:06.026Z,67.80
2018-07-12T10:06:09.226Z,67.70
2018-07-12T10:07:06.110Z,67.80
2018-07-12T10:08:05.900Z,67.70
2018-07-12T10:09:08.722Z,67.60
2018-07-12T10:10:06.124Z,67.60
2018-07-12T10:11:08.759Z,67.80
2018-07-12T10:12:06.788Z,67.80
2018-07-12T10:13:06.768Z,67.60
2018-07-12T10:14:10.950Z,67.90
2018-07-12T10:15:08.906Z,67.60
2018-07-12T10:16:06.313Z,67.60
2018-07-12T10:17:05.829Z,67.70
2018-07-12T10:18:06.577Z,67.70
2018-07-12T10:19:06.048Z,67.50
2018-07-12T10:20:06.482Z,67.00
2018-07-12T10:21:05.612Z,66.80
2018-07-12T10:22:11.179Z,66.80
2018-07-12T10:23:09.155Z,66.20
2018-07-12T10:24:10.544Z,66.10
2018-07-12T10:25:05.780Z,65.80
2018-07-12T10:26:05.984Z,65.30
2018-07-12T10:27:06.624Z,65.50
2018-07-12T10:28:08.892Z,65.90
2018-07-12T10:29:08.585Z,66.10
2018-07-12T10:30:08.460Z,66.20
2018-07-12T10:31:05.759Z,66.20
2018-07-12T10:32:05.914Z,66.10
2018-07-12T10:33:06.194Z,66.00
2018-07-12T10:34:05.749Z,65.40
2018-07-12T10:35:06.153Z,65.30
2018-07-12T10:36:06.240Z,64.60
2018-07-12T10:37:06.086Z,64.60
2018-07-12T10:38:06.236Z,64.40
2018-07-12T10:39:06.297Z,64.20
2018-07-12T10:40:05.642Z,64.30
2018-07-12T10:41:08.970Z,63.90
2018-07-12T10:42:08.977Z,63.90
2018-07-12T10:43:06.460Z,63.90
2018-07-12T10:44:11.062Z,63.60
2018-07-12T10:45:06.354Z,63.70
2018-07-12T10:46:05.907Z,63.90
2018-07-12T10:47:05.421Z,63.70
2018-07-12T10:48:08.329Z,63.70
2018-07-12T10:49:09.429Z,63.80
2018-07-12T10:50:06.015Z,63.80
2018-07-12T10:51:06.006Z,64.00
2018-07-12T10:52:08.808Z,64.10
2018-07-12T10:53:06.246Z,64.10
2018-07-12T10:54:09.283Z,64.10
2018-07-12T10:55:05.980Z,64.10
2018-07-12T10:56:06.332Z,63.80
2018-07-12T10:57:08.840Z,63.80
2018-07-12T10:58:10.358Z,63.90
2018-07-12T10:59:06.287Z,63.90
2018-07-12T11:00:08.761Z,64.20
2018-07-12T11:01:06.362Z,64.20
2018-07-12T11:02:06.191Z,63.90
2018-07-12T11:03:05.623Z,63.40
2018-07-12T11:04:11.217Z,63.60
2018-07-12T11:05:08.092Z,63.40
2018-07-12T11:06:05.531Z,63.40
2018-07-12T11:07:06.342Z,62.80
2018-07-12T11:08:06.509Z,62.80
2018-07-12T11:09:08.785Z,62.90
2018-07-12T11:10:11.408Z,62.70
2018-07-12T11:11:05.692Z,62.70
2018-07-12T11:12:12.220Z,62.50
2018-07-12T11:13:05.719Z,62.50
2018-07-12T11:14:06.483Z,62.40
2018-07-12T11:15:08.602Z,62.30
2018-07-12T11:16:09.131Z,62.30
2018-07-12T11:17:10.659Z,62.30
2018-07-12T11:18:05.960Z,62.50
2018-07-12T11:19:05.916Z,62.30
2018-07-12T11:20:05.792Z,62.60
2018-07-12T11:21:06.338Z,62.80
2018-07-12T11:22:10.505Z,62.90
2018-07-12T11:23:05.642Z,62.70
2018-07-12T11:24:06.480Z,63.00
2018-07-12T11:25:06.583Z,62.80
2018-07-12T11:26:11.255Z,62.80
2018-07-12T11:27:06.438Z,62.80
2018-07-12T11:28:06.031Z,62.60
2018-07-12T11:29:06.455Z,62.50
2018-07-12T11:30:11.037Z,62.40
2018-07-12T11:31:06.474Z,62.20
2018-07-12T11:32:11.293Z,62.40
2018-07-12T11:33:05.688Z,62.40
2018-07-12T11:34:05.834Z,62.40
2018-07-12T11:35:09.627Z,61.90
2018-07-12T11:36:05.952Z,61.90
2018-07-12T11:37:09.610Z,62.10
2018-07-12T11:38:11.145Z,62.90
2018-07-12T11:39:08.789Z,62.70
2018-07-12T11:40:09.740Z,62.70
2018-07-12T11:41:06.364Z,62.70
2018-07-12T11:42:05.700Z,62.90
2018-07-12T11:43:11.430Z,62.50
2018-07-12T11:44:05.789Z,61.00
2018-07-12T11:45:06.133Z,61.40
2018-07-12T11:46:05.724Z,60.30
2018-07-12T11:47:05.894Z,60.00
2018-07-12T11:48:08.795Z,59.70
2018-07-12T11:49:06.175Z,59.60
2018-07-12T11:50:09.050Z,59.70
2018-07-12T11:51:05.469Z,59.70
2018-07-12T11:52:06.509Z,59.60
2018-07-12T11:53:08.926Z,59.60
2018-07-12T11:54:05.600Z,59.50
2018-07-12T11:55:10.948Z,58.20
2018-07-12T11:56:06.653Z,58.20
2018-07-12T11:57:11.199Z,58.30
2018-07-12T11:58:10.499Z,58.10
2018-07-12T11:59:06.074Z,58.10
2018-07-12T12:00:05.384Z,57.20
2018-07-12T12:01:06.052Z,57.20
2018-07-12T12:02:06.347Z,57.20
2018-07-12T12:03:09.660Z,55.50
2018-07-12T12:04:09.608Z,55.10
2018-07-12T12:05:09.381Z,52.00
2018-07-12T12:06:06.672Z,51.60
2018-07-12T12:07:08.928Z,50.70
2018-07-12T12:08:06.289Z,50.70
2018-07-12T12:09:10.984Z,51.40
2018-07-12T12:10:06.247Z,51.40
2018-07-12T12:11:05.857Z,50.80
2018-07-12T12:12:05.984Z,51.30
2018-07-12T12:13:06.005Z,51.90
2018-07-12T12:14:09.030Z,52.40
2018-07-12T12:15:08.780Z,52.30
2018-07-12T12:16:13.700Z,52.40
2018-07-12T12:17:13.822Z,52.30
2018-07-12T12:18:06.213Z,52.30
2018-07-12T12:19:06.130Z,51.90
2018-07-12T12:20:05.542Z,51.90
2018-07-12T12:21:05.958Z,51.90
2018-07-12T12:22:05.949Z,52.20
2018-07-12T12:23:06.937Z,52.10
2018-07-12T12:24:05.917Z,52.00
2018-07-12T12:25:07.381Z,51.40
2018-07-12T12:26:06.227Z,50.20
2018-07-12T12:27:11.242Z,50.00
2018-07-12T12:28:09.747Z,49.70
2018-07-12T12:29:06.294Z,49.70
2018-07-12T12:30:05.653Z,49.60
2018-07-12T12:31:06.442Z,49.30
2018-07-12T12:32:08.714Z,48.90
2018-07-12T12:33:11.211Z,48.50
2018-07-12T12:34:06.294Z,48.50
2018-07-12T12:35:05.926Z,48.60
2018-07-12T12:36:05.860Z,49.00
2018-07-12T12:37:06.700Z,49.00
2018-07-12T12:38:09.025Z,49.40
2018-07-12T12:39:05.900Z,49.50
2018-07-12T12:40:05.701Z,49.80
2018-07-12T12:41:05.839Z,50.10
2018-07-12T12:42:08.491Z,50.80
2018-07-12T12:43:10.952Z,50.80
2018-07-12T12:44:06.426Z,51.30
2018-07-12T12:45:05.715Z,51.70
2018-07-12T12:46:06.840Z,51.90
2018-07-12T12:47:09.113Z,52.50
2018-07-12T12:48:05.930Z,52.60
2018-07-12T12:49:05.923Z,52.80
2018-07-12T12:50:06.378Z,53.20
2018-07-12T12:51:05.915Z,53.40
2018-07-12T12:52:05.997Z,53.60